sensor_id;sensor_type;location;lat;lon;timestamp;pressure;altitude;pressure_sealevel;temperature;humidity
70229;BME280;57617;51.988;5.854;2023-08-01T00:01:00;99419.16;;;20.30;74.58
70229;BME280;57617;51.988;5.854;2023-08-01T00:03:25;99413.50;;;20.27;74.49
70229;BME280;57617;51.988;5.854;2023-08-01T00:05:51;99413.97;;;20.29;74.69
70229;BME280;57617;51.988;5.854;2023-08-01T00:08:16;99419.97;;;20.31;74.71
70229;BME280;57617;51.988;5.854;2023-08-01T00:10:41;99415.59;;;20.30;74.46
70229;BME280;57617;51.988;5.854;2023-08-01T00:13:07;99412.03;;;20.29;74.46
70229;BME280;57617;51.988;5.854;2023-08-01T00:15:33;99419.50;;;20.29;74.57
70229;BME280;57617;51.988;5.854;2023-08-01T00:17:59;99418.34;;;20.30;74.42
70229;BME280;57617;51.988;5.854;2023-08-01T00:20:25;99415.59;;;20.30;74.37
70229;BME280;57617;51.988;5.854;2023-08-01T00:22:50;99406.50;;;20.29;74.08
70229;BME280;57617;51.988;5.854;2023-08-01T00:25:16;99411.22;;;20.29;74.20
70229;BME280;57617;51.988;5.854;2023-08-01T00:27:41;99402.16;;;20.28;73.93
70229;BME280;57617;51.988;5.854;2023-08-01T00:30:08;99399.25;;;20.25;73.91
70229;BME280;57617;51.988;5.854;2023-08-01T00:32:34;99390.72;;;20.18;74.07
70229;BME280;57617;51.988;5.854;2023-08-01T00:34:59;99396.16;;;20.26;73.68
70229;BME280;57617;51.988;5.854;2023-08-01T00:37:24;99387.09;;;20.26;73.57
70229;BME280;57617;51.988;5.854;2023-08-01T00:39:50;99372.03;;;20.23;73.54
70229;BME280;57617;51.988;5.854;2023-08-01T00:42:15;99370.06;;;20.24;73.54
70229;BME280;57617;51.988;5.854;2023-08-01T00:44:41;99377.88;;;20.22;73.55
70229;BME280;57617;51.988;5.854;2023-08-01T00:47:06;99375.13;;;20.22;73.50
70229;BME280;57617;51.988;5.854;2023-08-01T00:49:32;99373.97;;;20.23;73.55
70229;BME280;57617;51.988;5.854;2023-08-01T00:51:57;99369.28;;;20.23;73.37
70229;BME280;57617;51.988;5.854;2023-08-01T00:54:23;99373.16;;;20.22;73.58
70229;BME280;57617;51.988;5.854;2023-08-01T00:56:48;99367.63;;;20.22;73.37
70229;BME280;57617;51.988;5.854;2023-08-01T00:59:15;99365.56;;;20.19;73.31
70229;BME280;57617;51.988;5.854;2023-08-01T01:01:40;99357.75;;;20.21;73.32
70229;BME280;57617;51.988;5.854;2023-08-01T01:04:05;99366.03;;;20.21;73.38
70229;BME280;57617;51.988;5.854;2023-08-01T01:06:47;99361.22;;;20.18;73.31
70229;BME280;57617;51.988;5.854;2023-08-01T01:09:19;99357.97;;;20.16;73.65
70229;BME280;57617;51.988;5.854;2023-08-01T01:11:45;99354.88;;;20.18;73.50
70229;BME280;57617;51.988;5.854;2023-08-01T01:14:11;99352.44;;;20.16;73.45
70229;BME280;57617;51.988;5.854;2023-08-01T01:16:36;99357.97;;;20.16;73.30
70229;BME280;57617;51.988;5.854;2023-08-01T01:19:07;99355.69;;;20.18;73.31
70229;BME280;57617;51.988;5.854;2023-08-01T01:21:37;99354.53;;;20.19;73.48
70229;BME280;57617;51.988;5.854;2023-08-01T01:24:04;99350.50;;;20.17;73.36
70229;BME280;57617;51.988;5.854;2023-08-01T01:26:32;99354.41;;;20.16;73.16
70229;BME280;57617;51.988;5.854;2023-08-01T01:28:58;99337.94;;;20.07;73.22
70229;BME280;57617;51.988;5.854;2023-08-01T01:31:24;99351.16;;;20.14;73.46
70229;BME280;57617;51.988;5.854;2023-08-01T01:33:50;99347.63;;;20.13;73.24
70229;BME280;57617;51.988;5.854;2023-08-01T01:36:15;99349.22;;;20.14;73.29
70229;BME280;57617;51.988;5.854;2023-08-01T01:38:40;99352.31;;;20.13;73.02
70229;BME280;57617;51.988;5.854;2023-08-01T01:41:06;99355.09;;;20.13;73.29
70229;BME280;57617;51.988;5.854;2023-08-01T01:43:31;99344.38;;;20.11;73.33
70229;BME280;57617;51.988;5.854;2023-08-01T01:45:56;99346.00;;;20.12;73.18
70229;BME280;57617;51.988;5.854;2023-08-01T01:48:22;99344.38;;;20.11;73.17
70229;BME280;57617;51.988;5.854;2023-08-01T01:50:47;99348.41;;;20.14;73.15
70229;BME280;57617;51.988;5.854;2023-08-01T01:53:12;99345.66;;;20.14;73.24
70229;BME280;57617;51.988;5.854;2023-08-01T01:55:37;99342.78;;;20.10;73.02
70229;BME280;57617;51.988;5.854;2023-08-01T01:58:03;99341.97;;;20.10;73.04
70229;BME280;57617;51.988;5.854;2023-08-01T02:00:28;99335.50;;;20.06;73.09
70229;BME280;57617;51.988;5.854;2023-08-01T02:02:53;99335.50;;;20.06;73.22
70229;BME280;57617;51.988;5.854;2023-08-01T02:05:19;99335.00;;;20.04;72.95
70229;BME280;57617;51.988;5.854;2023-08-01T02:07:44;99328.72;;;20.03;73.24
70229;BME280;57617;51.988;5.854;2023-08-01T02:10:09;99329.03;;;20.02;73.17
70229;BME280;57617;51.988;5.854;2023-08-01T02:12:35;99331.56;;;19.95;73.19
70229;BME280;57617;51.988;5.854;2023-08-01T02:15:01;99330.41;;;19.96;72.97
70229;BME280;57617;51.988;5.854;2023-08-01T02:17:26;99333.03;;;19.92;72.88
70229;BME280;57617;51.988;5.854;2023-08-01T02:19:52;99322.81;;;19.93;73.14
70229;BME280;57617;51.988;5.854;2023-08-01T02:22:17;99317.16;;;19.89;73.15
70229;BME280;57617;51.988;5.854;2023-08-01T02:24:42;99266.13;;;19.51;73.08
70229;BME280;57617;51.988;5.854;2023-08-01T02:27:07;99320.59;;;19.86;73.19
70229;BME280;57617;51.988;5.854;2023-08-01T02:29:33;99322.75;;;19.81;73.10
70229;BME280;57617;51.988;5.854;2023-08-01T02:31:59;99318.72;;;19.78;73.09
70229;BME280;57617;51.988;5.854;2023-08-01T02:34:24;99327.44;;;19.80;73.05
70229;BME280;57617;51.988;5.854;2023-08-01T02:36:49;99326.16;;;19.78;73.21
70229;BME280;57617;51.988;5.854;2023-08-01T02:39:15;99325.22;;;19.74;73.23
70229;BME280;57617;51.988;5.854;2023-08-01T02:41:40;99328.13;;;19.77;73.08
70229;BME280;57617;51.988;5.854;2023-08-01T02:44:05;99319.38;;;19.75;73.61
70229;BME280;57617;51.988;5.854;2023-08-01T02:46:31;99324.09;;;19.75;72.98
70229;BME280;57617;51.988;5.854;2023-08-01T02:48:56;99326.03;;;19.74;73.21
70229;BME280;57617;51.988;5.854;2023-08-01T02:51:21;99326.38;;;19.73;73.17
70229;BME280;57617;51.988;5.854;2023-08-01T02:53:47;99330.59;;;19.70;73.04
70229;BME280;57617;51.988;5.854;2023-08-01T02:56:12;99329.66;;;19.66;72.96
70229;BME280;57617;51.988;5.854;2023-08-01T02:58:37;99329.66;;;19.66;73.54
70229;BME280;57617;51.988;5.854;2023-08-01T03:01:07;99325.63;;;19.64;73.34
70229;BME280;57617;51.988;5.854;2023-08-01T03:03:34;99331.00;;;19.60;73.33
70229;BME280;57617;51.988;5.854;2023-08-01T03:06:01;99326.66;;;19.59;73.29
70229;BME280;57617;51.988;5.854;2023-08-01T03:08:26;99327.34;;;19.56;73.25
70229;BME280;57617;51.988;5.854;2023-08-01T03:10:53;99327.88;;;19.50;73.49
70229;BME280;57617;51.988;5.854;2023-08-01T03:13:19;99325.56;;;19.52;73.46
70229;BME280;57617;51.988;5.854;2023-08-01T03:15:44;99326.41;;;19.52;73.37
70229;BME280;57617;51.988;5.854;2023-08-01T03:18:09;99321.66;;;19.53;73.49
70229;BME280;57617;51.988;5.854;2023-08-01T03:20:34;99328.81;;;19.54;73.71
70229;BME280;57617;51.988;5.854;2023-08-01T03:23:00;99321.66;;;19.53;73.54
70229;BME280;57617;51.988;5.854;2023-08-01T03:25:25;99327.34;;;19.56;73.81
70229;BME280;57617;51.988;5.854;2023-08-01T03:27:50;99330.44;;;19.55;73.71
70229;BME280;57617;51.988;5.854;2023-08-01T03:30:16;99331.56;;;19.54;73.63
70229;BME280;57617;51.988;5.854;2023-08-01T03:32:41;99333.72;;;19.48;73.82
70229;BME280;57617;51.988;5.854;2023-08-01T03:35:06;99337.94;;;19.46;73.97
70229;BME280;57617;51.988;5.854;2023-08-01T03:37:32;99332.88;;;19.48;73.99
70229;BME280;57617;51.988;5.854;2023-08-01T03:39:57;99329.22;;;19.44;74.51
70229;BME280;57617;51.988;5.854;2023-08-01T03:42:23;99328.41;;;19.43;73.89
70229;BME280;57617;51.988;5.854;2023-08-01T03:44:48;99332.09;;;19.47;74.13
70229;BME280;57617;51.988;5.854;2023-08-01T03:47:14;99333.84;;;19.52;73.98
70229;BME280;57617;51.988;5.854;2023-08-01T03:49:39;99331.91;;;19.52;74.19
70229;BME280;57617;51.988;5.854;2023-08-01T03:52:05;99328.47;;;19.55;74.11
70229;BME280;57617;51.988;5.854;2023-08-01T03:54:31;99336.25;;;19.53;73.82
70229;BME280;57617;51.988;5.854;2023-08-01T03:56:56;99329.34;;;19.47;74.11
70229;BME280;57617;51.988;5.854;2023-08-01T03:59:22;99335.19;;;19.46;74.58
70229;BME280;57617;51.988;5.854;2023-08-01T04:01:47;99337.28;;;19.49;74.28
70229;BME280;57617;51.988;5.854;2023-08-01T04:04:13;99343.06;;;19.56;74.30
70229;BME280;57617;51.988;5.854;2023-08-01T04:06:38;99335.81;;;19.51;74.55
70229;BME280;57617;51.988;5.854;2023-08-01T04:09:03;99335.81;;;19.51;74.48
70229;BME280;57617;51.988;5.854;2023-08-01T04:11:29;99339.66;;;19.50;74.18
70229;BME280;57617;51.988;5.854;2023-08-01T04:13:55;99347.47;;;19.48;74.36
70229;BME280;57617;51.988;5.854;2023-08-01T04:16:21;99358.22;;;19.41;74.51
70229;BME280;57617;51.988;5.854;2023-08-01T04:18:47;99334.75;;;19.35;74.50
70229;BME280;57617;51.988;5.854;2023-08-01T04:21:13;99343.44;;;19.46;74.54
70229;BME280;57617;51.988;5.854;2023-08-01T04:23:39;99353.31;;;19.47;74.67
70229;BME280;57617;51.988;5.854;2023-08-01T04:26:04;99353.31;;;19.47;74.68
70229;BME280;57617;51.988;5.854;2023-08-01T04:28:32;99340.69;;;19.46;74.40
70229;BME280;57617;51.988;5.854;2023-08-01T04:30:57;99334.84;;;19.47;74.58
70229;BME280;57617;51.988;5.854;2023-08-01T04:33:22;99337.94;;;19.46;74.44
70229;BME280;57617;51.988;5.854;2023-08-01T04:35:47;99333.44;;;19.41;74.55
70229;BME280;57617;51.988;5.854;2023-08-01T04:38:14;99335.72;;;19.39;74.59
70229;BME280;57617;51.988;5.854;2023-08-01T04:40:39;99336.53;;;19.40;74.63
70229;BME280;57617;51.988;5.854;2023-08-01T04:43:05;99342.50;;;19.42;74.91
70229;BME280;57617;51.988;5.854;2023-08-01T04:45:30;99334.22;;;19.42;74.62
70229;BME280;57617;51.988;5.854;2023-08-01T04:47:55;99336.53;;;19.40;74.52
70229;BME280;57617;51.988;5.854;2023-08-01T04:50:21;99338.59;;;19.43;74.91
70229;BME280;57617;51.988;5.854;2023-08-01T04:52:46;99334.72;;;19.44;74.74
70229;BME280;57617;51.988;5.854;2023-08-01T04:55:11;99336.19;;;19.41;74.58
70229;BME280;57617;51.988;5.854;2023-08-01T04:57:37;99338.94;;;19.41;74.84
70229;BME280;57617;51.988;5.854;2023-08-01T05:00:03;99342.16;;;19.43;74.90
70229;BME280;57617;51.988;5.854;2023-08-01T05:02:29;99346.66;;;19.48;74.84
70229;BME280;57617;51.988;5.854;2023-08-01T05:04:54;99340.50;;;19.51;74.64
70229;BME280;57617;51.988;5.854;2023-08-01T05:07:20;99344.19;;;19.55;74.84
70229;BME280;57617;51.988;5.854;2023-08-01T05:09:45;99339.84;;;19.54;74.73
70229;BME280;57617;51.988;5.854;2023-08-01T05:12:10;99345.47;;;19.57;74.52
70229;BME280;57617;51.988;5.854;2023-08-01T05:14:35;99342.22;;;19.55;74.53
70229;BME280;57617;51.988;5.854;2023-08-01T05:17:01;99338.19;;;19.53;74.61
70229;BME280;57617;51.988;5.854;2023-08-01T05:19:26;99344.41;;;19.50;74.62
70229;BME280;57617;51.988;5.854;2023-08-01T05:21:51;99345.88;;;19.47;74.73
70229;BME280;57617;51.988;5.854;2023-08-01T05:24:17;99349.09;;;19.49;74.64
70229;BME280;57617;51.988;5.854;2023-08-01T05:26:42;99356.38;;;19.54;74.66
70229;BME280;57617;51.988;5.854;2023-08-01T05:29:07;99365.09;;;19.56;74.79
70229;BME280;57617;51.988;5.854;2023-08-01T05:31:33;99364.25;;;19.55;74.54
70229;BME280;57617;51.988;5.854;2023-08-01T05:33:58;99369.13;;;19.58;74.44
70229;BME280;57617;51.988;5.854;2023-08-01T05:36:23;99371.53;;;19.60;74.83
70229;BME280;57617;51.988;5.854;2023-08-01T05:38:49;99366.50;;;19.62;74.70
70229;BME280;57617;51.988;5.854;2023-08-01T05:41:14;99367.66;;;19.61;74.97
70229;BME280;57617;51.988;5.854;2023-08-01T05:43:39;99368.47;;;19.61;74.66
70229;BME280;57617;51.988;5.854;2023-08-01T05:46:05;99372.34;;;19.60;74.79
70229;BME280;57617;51.988;5.854;2023-08-01T05:48:30;99367.31;;;19.62;74.60
70229;BME280;57617;51.988;5.854;2023-08-01T05:50:55;99364.56;;;19.62;74.99
70229;BME280;57617;51.988;5.854;2023-08-01T05:53:21;99367.97;;;19.59;74.62
70229;BME280;57617;51.988;5.854;2023-08-01T05:55:47;99363.16;;;19.56;74.81
70229;BME280;57617;51.988;5.854;2023-08-01T05:58:12;99371.81;;;19.67;74.95
70229;BME280;57617;51.988;5.854;2023-08-01T06:00:38;99375.19;;;19.72;74.75
70229;BME280;57617;51.988;5.854;2023-08-01T06:03:03;99363.34;;;19.72;74.71
70229;BME280;57617;51.988;5.854;2023-08-01T06:05:29;99362.69;;;19.75;74.64
70229;BME280;57617;51.988;5.854;2023-08-01T06:07:55;99364.94;;;19.73;74.62
70229;BME280;57617;51.988;5.854;2023-08-01T06:10:22;99359.63;;;19.68;74.82
70229;BME280;57617;51.988;5.854;2023-08-01T06:12:47;99374.81;;;19.74;74.52
70229;BME280;57617;51.988;5.854;2023-08-01T06:15:12;99379.34;;;19.78;74.60
70229;BME280;57617;51.988;5.854;2023-08-01T06:17:38;99385.31;;;19.80;74.38
70229;BME280;57617;51.988;5.854;2023-08-01T06:20:03;99383.38;;;19.81;74.54
70229;BME280;57617;51.988;5.854;2023-08-01T06:22:30;99393.38;;;19.85;74.31
70229;BME280;57617;51.988;5.854;2023-08-01T06:24:55;99395.34;;;19.85;74.53
70229;BME280;57617;51.988;5.854;2023-08-01T06:27:21;99391.25;;;19.91;74.49
70229;BME280;57617;51.988;5.854;2023-08-01T06:29:46;99394.00;;;19.91;74.22
70229;BME280;57617;51.988;5.854;2023-08-01T06:32:11;99395.28;;;19.93;73.83
70229;BME280;57617;51.988;5.854;2023-08-01T06:34:37;99392.53;;;19.93;74.05
70229;BME280;57617;51.988;5.854;2023-08-01T06:37:02;99403.03;;;20.00;73.88
70229;BME280;57617;51.988;5.854;2023-08-01T06:39:29;99397.16;;;20.01;73.90
70229;BME280;57617;51.988;5.854;2023-08-01T06:41:54;99397.63;;;20.03;73.90
70229;BME280;57617;51.988;5.854;2023-08-01T06:44:20;99405.91;;;20.03;73.89
70229;BME280;57617;51.988;5.854;2023-08-01T06:46:45;99396.50;;;20.04;73.90
70229;BME280;57617;51.988;5.854;2023-08-01T06:49:10;99398.91;;;20.06;73.50
70229;BME280;57617;51.988;5.854;2023-08-01T06:51:35;99403.09;;;20.12;73.56
70229;BME280;57617;51.988;5.854;2023-08-01T06:54:01;99408.41;;;20.17;73.76
70229;BME280;57617;51.988;5.854;2023-08-01T06:56:26;99402.19;;;20.20;73.58
70229;BME280;57617;51.988;5.854;2023-08-01T06:58:51;99406.72;;;20.24;73.74
70229;BME280;57617;51.988;5.854;2023-08-01T07:01:17;99400.88;;;20.26;73.59
70229;BME280;57617;51.988;5.854;2023-08-01T07:03:42;99401.34;;;20.28;73.38
70229;BME280;57617;51.988;5.854;2023-08-01T07:06:07;99407.19;;;20.26;73.27
70229;BME280;57617;51.988;5.854;2023-08-01T07:08:33;99404.91;;;20.28;73.22
70229;BME280;57617;51.988;5.854;2023-08-01T07:10:58;99412.81;;;20.30;73.10
70229;BME280;57617;51.988;5.854;2023-08-01T07:13:25;99408.00;;;20.27;73.08
70229;BME280;57617;51.988;5.854;2023-08-01T07:15:50;99411.22;;;20.29;73.12
70229;BME280;57617;51.988;5.854;2023-08-01T07:18:16;99407.47;;;20.33;72.95
70229;BME280;57617;51.988;5.854;2023-08-01T07:20:41;99408.03;;;20.39;73.01
70229;BME280;57617;51.988;5.854;2023-08-01T07:23:07;99407.59;;;20.37;72.95
70229;BME280;57617;51.988;5.854;2023-08-01T07:25:32;99406.56;;;20.41;73.04
70229;BME280;57617;51.988;5.854;2023-08-01T07:27:57;99406.22;;;20.43;72.84
70229;BME280;57617;51.988;5.854;2023-08-01T07:30:23;99407.94;;;20.47;72.80
70229;BME280;57617;51.988;5.854;2023-08-01T07:32:48;99408.88;;;20.51;72.57
70229;BME280;57617;51.988;5.854;2023-08-01T07:35:14;99393.03;;;20.48;72.39
70229;BME280;57617;51.988;5.854;2023-08-01T07:37:39;99414.88;;;20.53;72.30
70229;BME280;57617;51.988;5.854;2023-08-01T07:40:05;99414.53;;;20.55;72.41
70229;BME280;57617;51.988;5.854;2023-08-01T07:42:31;99406.25;;;20.55;72.00
70229;BME280;57617;51.988;5.854;2023-08-01T07:44:56;99404.31;;;20.55;71.81
70229;BME280;57617;51.988;5.854;2023-08-01T07:47:22;99407.66;;;20.61;71.88
70229;BME280;57617;51.988;5.854;2023-08-01T07:49:49;99407.09;;;20.67;71.73
70229;BME280;57617;51.988;5.854;2023-08-01T07:52:14;99400.78;;;20.67;71.27
70229;BME280;57617;51.988;5.854;2023-08-01T07:54:39;99409.06;;;20.67;71.35
70229;BME280;57617;51.988;5.854;2023-08-01T07:57:05;99409.41;;;20.77;70.92
70229;BME280;57617;51.988;5.854;2023-08-01T07:59:30;99403.56;;;20.79;70.96
70229;BME280;57617;51.988;5.854;2023-08-01T08:01:56;99418.63;;;20.81;71.06
70229;BME280;57617;51.988;5.854;2023-08-01T08:04:21;99415.31;;;20.88;70.68
70229;BME280;57617;51.988;5.854;2023-08-01T08:06:46;99402.44;;;20.92;70.54
70229;BME280;57617;51.988;5.854;2023-08-01T08:09:12;99400.97;;;20.94;70.33
70229;BME280;57617;51.988;5.854;2023-08-01T08:11:37;99412.81;;;20.95;70.14
70229;BME280;57617;51.988;5.854;2023-08-01T08:14:02;99402.81;;;20.90;70.10
70229;BME280;57617;51.988;5.854;2023-08-01T08:16:28;99426.06;;;20.89;70.27
70229;BME280;57617;51.988;5.854;2023-08-01T08:18:54;99426.25;;;20.84;70.37
70229;BME280;57617;51.988;5.854;2023-08-01T08:21:19;99430.72;;;20.77;70.46
70229;BME280;57617;51.988;5.854;2023-08-01T08:23:44;99432.53;;;20.73;70.62
70229;BME280;57617;51.988;5.854;2023-08-01T08:26:10;99429.16;;;20.67;70.65
70229;BME280;57617;51.988;5.854;2023-08-01T08:28:36;99430.00;;;20.68;70.85
70229;BME280;57617;51.988;5.854;2023-08-01T08:31:02;99423.53;;;20.64;70.77
70229;BME280;57617;51.988;5.854;2023-08-01T08:33:29;99426.75;;;20.66;71.23
70229;BME280;57617;51.988;5.854;2023-08-01T08:35:54;99428.50;;;20.70;71.24
70229;BME280;57617;51.988;5.854;2023-08-01T08:38:20;99425.41;;;20.72;71.58
70229;BME280;57617;51.988;5.854;2023-08-01T08:43:23;99431.16;;;20.79;71.90
70229;BME280;57617;51.988;5.854;2023-08-01T08:45:51;99423.81;;;20.83;71.90
70229;BME280;57617;51.988;5.854;2023-08-01T08:48:18;99421.19;;;20.86;71.93
70229;BME280;57617;51.988;5.854;2023-08-01T08:50:46;99423.97;;;20.98;71.77
70229;BME280;57617;51.988;5.854;2023-08-01T08:53:11;99430.31;;;20.99;71.31
70229;BME280;57617;51.988;5.854;2023-08-01T08:55:40;99426.75;;;20.98;71.32
70229;BME280;57617;51.988;5.854;2023-08-01T08:58:07;99432.75;;;21.00;71.09
70229;BME280;57617;51.988;5.854;2023-08-01T09:00:33;99429.19;;;21.12;71.45
70229;BME280;57617;51.988;5.854;2023-08-01T09:02:58;99430.81;;;21.13;71.00
70229;BME280;57617;51.988;5.854;2023-08-01T09:05:31;99430.09;;;21.16;70.85
70229;BME280;57617;51.988;5.854;2023-08-01T09:08:01;99426.19;;;21.17;70.75
70229;BME280;57617;51.988;5.854;2023-08-01T09:10:31;99425.28;;;21.25;70.47
70229;BME280;57617;51.988;5.854;2023-08-01T09:12:57;99428.97;;;21.29;70.16
70229;BME280;57617;51.988;5.854;2023-08-01T09:15:23;99421.72;;;21.36;70.09
70229;BME280;57617;51.988;5.854;2023-08-01T09:17:51;99418.03;;;21.56;69.89
70229;BME280;57617;51.988;5.854;2023-08-01T09:20:16;99427.00;;;21.65;69.05
70229;BME280;57617;51.988;5.854;2023-08-01T09:22:46;99423.78;;;21.63;67.23
70229;BME280;57617;51.988;5.854;2023-08-01T09:25:12;99428.97;;;21.65;68.63
70229;BME280;57617;51.988;5.854;2023-08-01T09:27:38;99431.97;;;21.72;68.58
70229;BME280;57617;51.988;5.854;2023-08-01T09:30:13;99430.47;;;21.74;66.66
70229;BME280;57617;51.988;5.854;2023-08-01T09:32:51;99437.25;;;21.65;66.18
70229;BME280;57617;51.988;5.854;2023-08-01T09:35:17;99442.44;;;21.54;67.17
70229;BME280;57617;51.988;5.854;2023-08-01T09:37:42;99437.97;;;21.50;66.84
70229;BME280;57617;51.988;5.854;2023-08-01T09:40:11;99449.56;;;21.55;66.18
70229;BME280;57617;51.988;5.854;2023-08-01T09:42:38;99458.00;;;21.59;66.09
70229;BME280;57617;51.988;5.854;2023-08-01T09:45:07;99460.06;;;21.62;66.07
70229;BME280;57617;51.988;5.854;2023-08-01T09:47:36;99462.59;;;21.67;66.36
70229;BME280;57617;51.988;5.854;2023-08-01T09:50:02;99473.09;;;21.73;66.46
70229;BME280;57617;51.988;5.854;2023-08-01T09:52:28;99471.16;;;21.74;66.24
70229;BME280;57617;51.988;5.854;2023-08-01T09:54:53;99466.19;;;21.79;66.02
70229;BME280;57617;51.988;5.854;2023-08-01T09:57:19;99466.06;;;21.88;64.71
70229;BME280;57617;51.988;5.854;2023-08-01T09:59:47;99466.06;;;22.00;65.26
70229;BME280;57617;51.988;5.854;2023-08-01T10:02:15;99460.84;;;22.10;64.36
70229;BME280;57617;51.988;5.854;2023-08-01T10:04:41;99465.34;;;22.15;64.16
70229;BME280;57617;51.988;5.854;2023-08-01T10:07:08;99469.94;;;22.11;62.70
70229;BME280;57617;51.988;5.854;2023-08-01T10:09:37;99468.88;;;22.15;63.63
70229;BME280;57617;51.988;5.854;2023-08-01T10:12:04;99465.38;;;22.30;63.46
70229;BME280;57617;51.988;5.854;2023-08-01T10:14:32;99469.41;;;22.45;63.58
70229;BME280;57617;51.988;5.854;2023-08-01T10:16:57;99469.91;;;22.62;63.18
70229;BME280;57617;51.988;5.854;2023-08-01T10:19:24;99463.25;;;22.79;63.00
70229;BME280;57617;51.988;5.854;2023-08-01T10:21:50;99469.03;;;23.01;60.92
70229;BME280;57617;51.988;5.854;2023-08-01T10:24:17;99471.03;;;23.16;61.15
70229;BME280;57617;51.988;5.854;2023-08-01T10:26:46;99479.19;;;23.25;60.45
70229;BME280;57617;51.988;5.854;2023-08-01T10:29:12;99484.72;;;23.25;61.15
70229;BME280;57617;51.988;5.854;2023-08-01T10:31:37;99487.94;;;23.27;60.15
70229;BME280;57617;51.988;5.854;2023-08-01T10:34:05;99481.13;;;23.24;59.49
70229;BME280;57617;51.988;5.854;2023-08-01T10:36:31;99488.66;;;23.24;59.88
70229;BME280;57617;51.988;5.854;2023-08-01T10:38:59;99486.16;;;23.34;59.63
70229;BME280;57617;51.988;5.854;2023-08-01T10:44:11;99486.41;;;23.60;58.78
70229;BME280;57617;51.988;5.854;2023-08-01T10:49:16;99491.53;;;23.58;58.38
70229;BME280;57617;51.988;5.854;2023-08-01T10:51:42;99492.88;;;23.64;58.18
70229;BME280;57617;51.988;5.854;2023-08-01T10:54:18;99484.38;;;23.57;56.04
70229;BME280;57617;51.988;5.854;2023-08-01T10:56:45;99487.59;;;23.44;57.85
70229;BME280;57617;51.988;5.854;2023-08-01T10:59:12;99496.88;;;23.36;58.52
70229;BME280;57617;51.988;5.854;2023-08-01T11:01:45;99496.16;;;23.54;56.94
70229;BME280;57617;51.988;5.854;2023-08-01T11:04:20;99494.56;;;23.69;56.37
70229;BME280;57617;51.988;5.854;2023-08-01T11:06:47;99489.75;;;23.66;57.75
70229;BME280;57617;51.988;5.854;2023-08-01T11:09:17;99485.09;;;23.70;56.73
70229;BME280;57617;51.988;5.854;2023-08-01T11:11:43;99484.53;;;23.64;57.19
70229;BME280;57617;51.988;5.854;2023-08-01T11:14:11;99489.09;;;23.72;57.54
70229;BME280;57617;51.988;5.854;2023-08-01T11:16:37;99492.25;;;23.71;56.51
70229;BME280;57617;51.988;5.854;2023-08-01T11:19:03;99498.59;;;23.71;55.92
70229;BME280;57617;51.988;5.854;2023-08-01T11:21:28;99497.44;;;23.72;56.82
70229;BME280;57617;51.988;5.854;2023-08-01T11:23:53;99505.03;;;23.91;56.80
70229;BME280;57617;51.988;5.854;2023-08-01T11:26:19;99501.94;;;24.11;56.13
70229;BME280;57617;51.988;5.854;2023-08-01T11:28:45;99511.16;;;24.15;54.97
70229;BME280;57617;51.988;5.854;2023-08-01T11:31:11;99506.16;;;24.21;54.55
70229;BME280;57617;51.988;5.854;2023-08-01T11:33:37;99506.44;;;24.35;54.53
70229;BME280;57617;51.988;5.854;2023-08-01T11:36:04;99522.22;;;24.31;53.92
70229;BME280;57617;51.988;5.854;2023-08-01T11:38:33;99527.59;;;24.24;53.75
70229;BME280;57617;51.988;5.854;2023-08-01T11:41:00;99530.56;;;24.31;54.00
70229;BME280;57617;51.988;5.854;2023-08-01T11:43:26;99525.50;;;24.36;53.78
70229;BME280;57617;51.988;5.854;2023-08-01T11:45:55;99521.38;;;24.46;53.64
70229;BME280;57617;51.988;5.854;2023-08-01T11:48:22;99529.72;;;24.46;52.67
70229;BME280;57617;51.988;5.854;2023-08-01T11:50:48;99530.00;;;24.41;53.06
70229;BME280;57617;51.988;5.854;2023-08-01T11:53:20;99546.19;;;24.39;52.28
70229;BME280;57617;51.988;5.854;2023-08-01T11:55:47;99519.47;;;24.50;52.71
70229;BME280;57617;51.988;5.854;2023-08-01T11:58:12;99542.38;;;24.62;53.17
70229;BME280;57617;51.988;5.854;2023-08-01T12:00:39;99543.78;;;24.72;52.97
70229;BME280;57617;51.988;5.854;2023-08-01T12:03:06;99539.19;;;24.79;52.40
70229;BME280;57617;51.988;5.854;2023-08-01T12:05:32;99535.38;;;24.87;52.20
70229;BME280;57617;51.988;5.854;2023-08-01T12:08:11;99539.84;;;24.92;50.57
70229;BME280;57617;51.988;5.854;2023-08-01T12:10:45;99541.97;;;24.79;50.41
70229;BME280;57617;51.988;5.854;2023-08-01T12:13:24;99542.56;;;24.54;51.73
70229;BME280;57617;51.988;5.854;2023-08-01T12:15:51;99544.59;;;24.38;53.14
70229;BME280;57617;51.988;5.854;2023-08-01T12:18:27;99556.09;;;24.21;52.17
70229;BME280;57617;51.988;5.854;2023-08-01T12:20:53;99533.38;;;23.84;53.50
70229;BME280;57617;51.988;5.854;2023-08-01T12:23:19;99576.13;;;23.68;52.95
70229;BME280;57617;51.988;5.854;2023-08-01T12:25:45;99566.91;;;23.48;53.76
70229;BME280;57617;51.988;5.854;2023-08-01T12:28:12;99576.22;;;23.40;54.00
70229;BME280;57617;51.988;5.854;2023-08-01T12:30:39;99578.09;;;23.36;53.68
70229;BME280;57617;51.988;5.854;2023-08-01T12:33:05;99565.75;;;23.34;53.76
70229;BME280;57617;51.988;5.854;2023-08-01T12:35:30;99578.25;;;23.28;53.83
70229;BME280;57617;51.988;5.854;2023-08-01T12:37:55;99580.03;;;23.36;54.47
70229;BME280;57617;51.988;5.854;2023-08-01T12:40:21;99589.09;;;23.48;54.05
70229;BME280;57617;51.988;5.854;2023-08-01T12:42:47;99595.19;;;23.54;54.16
70229;BME280;57617;51.988;5.854;2023-08-01T12:45:12;99588.84;;;23.53;54.13
70229;BME280;57617;51.988;5.854;2023-08-01T12:47:37;99592.50;;;23.57;54.04
70229;BME280;57617;51.988;5.854;2023-08-01T12:50:03;99587.75;;;23.58;54.34
70229;BME280;57617;51.988;5.854;2023-08-01T12:52:29;99589.91;;;23.64;53.81
70229;BME280;57617;51.988;5.854;2023-08-01T12:54:54;99607.38;;;23.65;54.25
70229;BME280;57617;51.988;5.854;2023-08-01T12:57:19;99599.22;;;23.72;52.97
70229;BME280;57617;51.988;5.854;2023-08-01T12:59:44;99596.38;;;23.84;53.34
70229;BME280;57617;51.988;5.854;2023-08-01T13:02:10;99596.31;;;23.96;53.96